createdAt,value
2022-11-16T00:01:05.868Z,78.70
2022-11-16T00:03:33.481Z,78.05
2022-11-16T00:06:02.669Z,78.32
2022-11-16T00:08:31.366Z,79.22
2022-11-16T00:11:09.760Z,78.83
2022-11-16T00:13:37.273Z,79.22
2022-11-16T00:16:05.228Z,78.94
2022-11-16T00:18:32.383Z,79.15
2022-11-16T00:20:59.262Z,79.08
2022-11-16T00:23:25.726Z,77.68
2022-11-16T00:25:53.206Z,78.30
2022-11-16T00:28:19.996Z,79.33
2022-11-16T00:30:46.490Z,78.46
2022-11-16T00:33:16.328Z,79.06
2022-11-16T00:35:42.801Z,79.14
2022-11-16T00:38:09.570Z,78.47
2022-11-16T00:40:36.003Z,79.20
2022-11-16T00:47:16.149Z,78.28
2022-11-16T00:49:42.624Z,78.63
2022-11-16T00:52:09.347Z,78.42
2022-11-16T00:54:36.008Z,78.94
2022-11-16T00:57:06.110Z,78.99
2022-11-16T00:59:32.794Z,79.07
2022-11-16T01:01:59.302Z,79.18
2022-11-16T01:04:25.839Z,79.11
2022-11-16T01:06:52.528Z,78.95
2022-11-16T01:09:19.037Z,78.93
2022-11-16T01:12:06.327Z,78.92
2022-11-16T01:14:32.792Z,79.10
2022-11-16T01:17:00.035Z,78.28
2022-11-16T01:19:28.763Z,78.49
2022-11-16T01:21:55.338Z,77.91
2022-11-16T01:24:23.089Z,78.52
2022-11-16T01:26:50.019Z,79.11
2022-11-16T01:29:17.836Z,79.21
2022-11-16T01:31:50.537Z,79.11
2022-11-16T01:34:17.286Z,78.62
2022-11-16T01:36:44.444Z,79.02
2022-11-16T01:39:15.999Z,77.90
2022-11-16T01:41:47.756Z,78.03
2022-11-16T01:44:14.952Z,78.03
2022-11-16T01:46:53.848Z,77.90
2022-11-16T01:49:24.168Z,77.82
2022-11-16T01:51:59.509Z,78.13
2022-11-16T01:54:29.312Z,77.81
2022-11-16T01:57:02.765Z,77.98
2022-11-16T01:59:35.090Z,78.62
2022-11-16T02:02:02.777Z,77.93
2022-11-16T02:04:30.147Z,78.51
2022-11-16T02:07:23.333Z,78.96
2022-11-16T02:10:12.266Z,79.30
2022-11-16T02:12:44.962Z,80.22
2022-11-16T02:15:27.988Z,80.93
2022-11-16T02:18:18.786Z,81.37
2022-11-16T02:21:30.094Z,82.11
2022-11-16T02:24:13.400Z,82.89
2022-11-16T02:26:55.700Z,83.01
2022-11-16T02:29:37.906Z,82.86
2022-11-16T02:32:44.019Z,83.54
2022-11-16T02:35:16.945Z,83.91
2022-11-16T02:37:48.591Z,84.57
2022-11-16T02:40:17.949Z,84.38
2022-11-16T02:42:57.979Z,84.48
2022-11-16T02:45:32.774Z,84.71
2022-11-16T02:48:13.175Z,84.69
2022-11-16T02:50:40.790Z,85.43
2022-11-16T02:53:08.907Z,85.70
2022-11-16T02:55:36.683Z,86.29
2022-11-16T02:58:09.780Z,85.95
2022-11-16T03:00:46.690Z,86.73
2022-11-16T03:03:28.551Z,86.88
2022-11-16T03:06:00.252Z,87.00
2022-11-16T03:08:38.162Z,87.57
2022-11-16T03:11:27.140Z,87.95
2022-11-16T03:13:59.288Z,87.74
2022-11-16T03:16:34.927Z,88.25
2022-11-16T03:19:07.969Z,89.06
2022-11-16T03:21:58.142Z,89.02
2022-11-16T03:24:25.377Z,89.33
2022-11-16T03:26:54.993Z,90.78
2022-11-16T03:29:42.534Z,90.88
2022-11-16T03:32:27.339Z,90.03
2022-11-16T03:35:03.283Z,90.88
2022-11-16T03:37:31.920Z,91.12
2022-11-16T03:40:01.879Z,91.02
2022-11-16T03:42:32.970Z,91.29
2022-11-16T03:45:00.335Z,91.92
2022-11-16T03:47:27.300Z,91.96
2022-11-16T03:49:53.801Z,92.71
2022-11-16T03:52:22.996Z,93.48
2022-11-16T03:54:50.518Z,93.22
2022-11-16T03:57:18.530Z,92.88
2022-11-16T03:59:50.555Z,93.33
2022-11-16T04:02:17.387Z,93.03
2022-11-16T04:05:03.556Z,93.50
2022-11-16T04:07:48.966Z,93.24
2022-11-16T04:10:34.253Z,93.83
2022-11-16T04:13:21.704Z,94.55
2022-11-16T04:16:06.985Z,94.25
2022-11-16T04:18:52.215Z,93.40
2022-11-16T04:21:44.152Z,94.57
2022-11-16T04:24:26.364Z,94.86
2022-11-16T04:27:19.341Z,94.74
2022-11-16T04:29:46.233Z,95.11
2022-11-16T04:32:31.562Z,95.35
2022-11-16T04:35:17.081Z,95.71
2022-11-16T04:37:52.419Z,95.04
2022-11-16T04:40:29.553Z,95.01
2022-11-16T04:42:59.026Z,94.55
2022-11-16T04:45:47.263Z,94.43
2022-11-16T04:48:17.961Z,94.90
2022-11-16T04:50:45.604Z,95.38
2022-11-16T04:53:12.843Z,95.61
2022-11-16T04:55:45.387Z,96.47
2022-11-16T04:58:13.829Z,96.58
2022-11-16T05:00:40.501Z,96.60
2022-11-16T05:03:07.896Z,96.50
2022-11-16T05:05:35.244Z,96.28
2022-11-16T05:08:01.938Z,96.02
2022-11-16T05:10:31.052Z,96.30
2022-11-16T05:12:57.687Z,96.97
2022-11-16T05:15:25.223Z,96.60
2022-11-16T05:17:55.650Z,96.84
2022-11-16T05:20:43.256Z,97.10
2022-11-16T05:23:29.815Z,97.54
2022-11-16T05:26:00.333Z,97.37
2022-11-16T05:28:29.171Z,96.99
2022-11-16T05:30:56.200Z,97.78
2022-11-16T05:33:24.094Z,98.18
2022-11-16T05:35:51.679Z,97.09
2022-11-16T05:38:19.563Z,97.23
2022-11-16T05:40:49.949Z,97.25
2022-11-16T05:43:17.431Z,97.97
2022-11-16T05:45:53.714Z,98.73
2022-11-16T05:48:20.695Z,98.55
2022-11-16T05:50:48.647Z,98.56
2022-11-16T05:53:22.151Z,98.28
2022-11-16T05:55:48.898Z,98.05
2022-11-16T05:58:16.816Z,98.31
2022-11-16T06:00:46.573Z,98.99
2022-11-16T06:03:13.530Z,99.31
2022-11-16T06:05:40.960Z,99.53
2022-11-16T06:08:09.698Z,100.00
2022-11-16T06:10:36.975Z,100.00
2022-11-16T06:13:04.280Z,99.58
2022-11-16T06:15:30.828Z,99.60
2022-11-16T06:17:57.955Z,99.47
2022-11-16T06:20:24.964Z,100.00
2022-11-16T06:22:53.008Z,100.00
2022-11-16T06:25:19.997Z,99.87
2022-11-16T06:27:46.657Z,100.00
2022-11-16T06:30:16.391Z,100.00
2022-11-16T06:32:44.729Z,100.00
2022-11-16T06:35:11.451Z,100.00
2022-11-16T06:37:38.854Z,100.00
2022-11-16T06:40:07.241Z,99.92
2022-11-16T06:42:36.768Z,100.00
2022-11-16T06:45:03.810Z,100.00
2022-11-16T06:47:36.006Z,100.00
2022-11-16T06:50:02.830Z,100.00
2022-11-16T06:52:29.995Z,100.00
2022-11-16T06:54:57.465Z,100.00
2022-11-16T06:57:23.988Z,100.00
2022-11-16T06:59:50.942Z,100.00
2022-11-16T07:02:20.415Z,100.00
2022-11-16T07:04:48.062Z,100.00
2022-11-16T07:07:18.226Z,100.00
2022-11-16T07:09:45.612Z,100.00
2022-11-16T07:12:14.152Z,100.00
2022-11-16T07:14:41.516Z,100.00
2022-11-16T07:17:09.993Z,100.00
2022-11-16T07:19:37.304Z,100.00
2022-11-16T07:22:06.737Z,100.00
2022-11-16T07:24:33.464Z,100.00
2022-11-16T07:26:59.951Z,100.00
2022-11-16T07:29:31.290Z,100.00
2022-11-16T07:32:09.909Z,100.00
2022-11-16T07:34:55.795Z,100.00
2022-11-16T07:37:24.525Z,100.00
2022-11-16T07:39:51.430Z,100.00
2022-11-16T07:42:18.049Z,100.00
2022-11-16T07:45:07.624Z,100.00
2022-11-16T07:47:39.122Z,100.00
2022-11-16T07:50:10.985Z,100.00
2022-11-16T07:52:37.937Z,100.00
2022-11-16T07:55:07.501Z,100.00
2022-11-16T07:57:35.073Z,100.00
2022-11-16T08:00:06.532Z,100.00
2022-11-16T08:02:47.592Z,100.00
2022-11-16T08:05:18.300Z,100.00
2022-11-16T08:07:46.108Z,100.00
2022-11-16T08:10:13.019Z,100.00
2022-11-16T08:12:40.269Z,100.00
2022-11-16T08:15:08.454Z,100.00
2022-11-16T08:17:34.959Z,100.00
2022-11-16T08:20:04.298Z,100.00
2022-11-16T08:22:30.788Z,100.00
2022-11-16T08:24:57.535Z,100.00
2022-11-16T08:27:25.328Z,100.00
2022-11-16T08:29:54.283Z,100.00
2022-11-16T08:32:21.005Z,100.00
2022-11-16T08:34:48.158Z,100.00
2022-11-16T08:37:14.936Z,100.00
2022-11-16T08:39:44.064Z,100.00
2022-11-16T08:42:10.903Z,100.00
2022-11-16T08:44:38.802Z,100.00
2022-11-16T08:47:09.977Z,100.00
2022-11-16T08:49:43.983Z,100.00
2022-11-16T08:52:15.232Z,100.00
2022-11-16T08:54:42.975Z,100.00
2022-11-16T08:57:11.100Z,100.00
2022-11-16T08:59:39.354Z,100.00
2022-11-16T09:02:10.717Z,100.00
2022-11-16T09:04:37.545Z,100.00
2022-11-16T09:07:04.391Z,100.00
2022-11-16T09:09:30.953Z,100.00
2022-11-16T09:11:57.453Z,100.00
2022-11-16T09:14:23.927Z,100.00
2022-11-16T09:16:50.594Z,100.00
2022-11-16T09:19:17.651Z,100.00
2022-11-16T09:21:45.684Z,100.00
2022-11-16T09:24:12.206Z,100.00
2022-11-16T09:26:38.664Z,100.00
2022-11-16T09:29:05.164Z,100.00
2022-11-16T09:31:34.659Z,100.00
2022-11-16T09:34:01.298Z,100.00
2022-11-16T09:36:28.719Z,100.00
2022-11-16T09:39:29.518Z,100.00
2022-11-16T09:42:00.140Z,100.00
2022-11-16T09:44:53.373Z,100.00
2022-11-16T09:47:22.278Z,100.00
2022-11-16T09:49:59.895Z,100.00
2022-11-16T09:52:41.382Z,100.00
2022-11-16T09:55:36.954Z,100.00
2022-11-16T09:58:16.343Z,100.00
2022-11-16T10:00:49.988Z,100.00
2022-11-16T10:03:16.706Z,100.00
2022-11-16T10:06:11.479Z,100.00
2022-11-16T10:08:46.725Z,100.00
2022-11-16T10:11:23.960Z,100.00
2022-11-16T10:14:05.229Z,100.00
2022-11-16T10:16:47.015Z,100.00
2022-11-16T10:19:22.441Z,100.00
2022-11-16T10:21:58.026Z,100.00
2022-11-16T10:24:53.605Z,100.00
2022-11-16T10:27:32.864Z,100.00
2022-11-16T10:30:08.850Z,100.00
2022-11-16T10:32:46.268Z,100.00
2022-11-16T10:35:12.750Z,100.00
2022-11-16T10:37:47.747Z,100.00
2022-11-16T10:40:38.824Z,100.00
2022-11-16T10:43:14.742Z,99.65
2022-11-16T10:45:57.965Z,100.00
2022-11-16T10:48:49.081Z,100.00
2022-11-16T10:51:15.620Z,100.00
2022-11-16T10:53:46.338Z,100.00
2022-11-16T10:56:19.653Z,100.00
2022-11-16T10:59:10.357Z,100.00
2022-11-16T11:01:41.166Z,100.00
2022-11-16T11:04:25.260Z,100.00
2022-11-16T11:06:54.833Z,100.00
2022-11-16T11:09:28.718Z,100.00
2022-11-16T11:12:31.581Z,100.00
2022-11-16T11:14:59.890Z,100.00
2022-11-16T11:17:26.495Z,100.00
2022-11-16T11:19:58.786Z,100.00
2022-11-16T11:22:25.588Z,100.00
2022-11-16T11:24:52.921Z,100.00
2022-11-16T11:27:27.143Z,100.00
2022-11-16T11:29:58.550Z,100.00
2022-11-16T11:32:38.281Z,100.00
2022-11-16T11:35:06.646Z,100.00
2022-11-16T11:37:36.083Z,100.00
2022-11-16T11:40:10.496Z,100.00
2022-11-16T11:42:42.920Z,100.00
2022-11-16T11:45:15.402Z,100.00
2022-11-16T11:47:59.818Z,100.00
2022-11-16T11:50:38.847Z,100.00
2022-11-16T11:53:21.244Z,100.00
2022-11-16T11:55:52.320Z,100.00
2022-11-16T11:58:19.742Z,100.00
2022-11-16T12:01:05.975Z,100.00
2022-11-16T12:04:16.751Z,100.00
2022-11-16T12:07:28.289Z,100.00
2022-11-16T12:10:16.578Z,100.00
2022-11-16T12:13:03.428Z,100.00
2022-11-16T12:15:48.041Z,99.53
2022-11-16T12:18:56.557Z,100.00
2022-11-16T12:21:44.516Z,100.00
2022-11-16T12:24:24.214Z,99.03
2022-11-16T12:27:05.724Z,99.69
2022-11-16T12:29:45.012Z,99.80
2022-11-16T12:32:34.075Z,99.41
2022-11-16T12:35:22.246Z,99.70
2022-11-16T12:38:02.592Z,99.22
2022-11-16T12:40:37.898Z,100.00
2022-11-16T12:43:38.239Z,100.00
2022-11-16T12:46:43.687Z,100.00
2022-11-16T12:49:16.512Z,100.00
2022-11-16T12:51:56.206Z,100.00
2022-11-16T12:55:19.221Z,100.00
2022-11-16T12:57:58.778Z,100.00
2022-11-16T13:00:26.665Z,100.00
2022-11-16T13:03:11.773Z,100.00
2022-11-16T13:06:00.248Z,100.00
2022-11-16T13:08:56.497Z,100.00
2022-11-16T13:11:30.514Z,100.00
2022-11-16T13:14:01.295Z,100.00
2022-11-16T13:16:29.233Z,100.00
2022-11-16T13:18:56.571Z,100.00
2022-11-16T13:22:03.626Z,100.00
2022-11-16T13:24:40.653Z,100.00
2022-11-16T13:27:25.746Z,100.00
2022-11-16T13:29:58.747Z,100.00
2022-11-16T13:32:28.268Z,100.00
2022-11-16T13:34:55.575Z,100.00
2022-11-16T13:37:34.122Z,100.00
2022-11-16T13:40:02.966Z,100.00
2022-11-16T13:42:31.861Z,100.00
2022-11-16T13:45:21.529Z,100.00
2022-11-16T13:47:53.878Z,100.00
2022-11-16T13:50:33.131Z,100.00
2022-11-16T13:54:43.184Z,100.00
2022-11-16T13:56:03.170Z,100.00
2022-11-16T13:58:31.497Z,100.00
2022-11-16T14:01:17.322Z,100.00
2022-11-16T14:03:51.574Z,100.00
2022-11-16T14:06:24.280Z,100.00
2022-11-16T14:08:55.971Z,100.00
2022-11-16T14:11:39.514Z,100.00
2022-11-16T14:14:10.637Z,100.00
2022-11-16T14:16:44.813Z,100.00
2022-11-16T14:19:47.604Z,100.00
2022-11-16T14:22:44.488Z,100.00
2022-11-16T14:25:57.639Z,100.00
2022-11-16T14:28:32.959Z,100.00
2022-11-16T14:31:17.051Z,100.00
2022-11-16T14:33:49.978Z,100.00
2022-11-16T14:36:17.095Z,100.00
2022-11-16T14:38:44.836Z,100.00
2022-11-16T14:41:23.040Z,100.00
2022-11-16T14:43:53.596Z,100.00
2022-11-16T14:46:26.879Z,100.00
2022-11-16T14:48:55.942Z,100.00
2022-11-16T14:51:36.836Z,100.00
2022-11-16T14:54:16.560Z,100.00
2022-11-16T14:57:02.626Z,100.00
2022-11-16T14:59:31.124Z,100.00
2022-11-16T15:02:04.976Z,100.00
2022-11-16T15:04:31.858Z,100.00
2022-11-16T15:07:02.230Z,100.00
2022-11-16T15:09:37.709Z,100.00
2022-11-16T15:12:24.974Z,100.00
2022-11-16T15:14:54.741Z,100.00
2022-11-16T15:17:27.204Z,100.00
2022-11-16T15:19:59.238Z,100.00
2022-11-16T15:22:31.626Z,100.00
2022-11-16T15:25:00.199Z,100.00
2022-11-16T15:27:37.909Z,100.00
2022-11-16T15:30:14.595Z,100.00
2022-11-16T15:32:46.278Z,100.00
2022-11-16T15:35:19.985Z,100.00
2022-11-16T15:37:46.869Z,100.00
2022-11-16T15:40:14.537Z,100.00
2022-11-16T15:42:42.155Z,100.00
2022-11-16T15:45:24.114Z,100.00
2022-11-16T15:47:53.712Z,100.00
2022-11-16T15:50:23.483Z,100.00
2022-11-16T15:52:55.368Z,100.00
2022-11-16T15:55:23.916Z,100.00
2022-11-16T15:58:26.501Z,100.00
2022-11-16T16:00:54.481Z,100.00
2022-11-16T16:03:24.200Z,100.00
2022-11-16T16:05:51.771Z,100.00
2022-11-16T16:08:30.434Z,100.00
2022-11-16T16:11:21.420Z,100.00
2022-11-16T16:14:03.322Z,100.00
2022-11-16T16:16:39.774Z,100.00
2022-11-16T16:19:30.077Z,100.00
2022-11-16T16:21:58.556Z,100.00
2022-11-16T16:24:45.871Z,100.00
2022-11-16T16:27:25.934Z,100.00
2022-11-16T16:29:57.403Z,100.00
2022-11-16T16:32:28.615Z,100.00
2022-11-16T16:35:00.360Z,100.00
2022-11-16T16:37:29.515Z,100.00
2022-11-16T16:39:56.375Z,100.00
2022-11-16T16:42:23.381Z,100.00
2022-11-16T16:44:50.899Z,100.00
2022-11-16T16:47:20.837Z,100.00
2022-11-16T16:49:49.374Z,100.00
2022-11-16T16:52:16.705Z,100.00
2022-11-16T16:54:43.752Z,100.00
2022-11-16T16:57:15.106Z,100.00
2022-11-16T16:59:42.417Z,100.00
2022-11-16T17:02:11.531Z,100.00
2022-11-16T17:04:38.157Z,100.00
2022-11-16T17:07:04.689Z,100.00
2022-11-16T17:09:31.201Z,100.00
2022-11-16T17:11:57.722Z,100.00
2022-11-16T17:14:24.597Z,100.00
2022-11-16T17:16:52.205Z,100.00
2022-11-16T17:19:20.047Z,100.00
2022-11-16T17:21:46.782Z,100.00
2022-11-16T17:24:13.389Z,100.00
2022-11-16T17:26:40.792Z,100.00
2022-11-16T17:29:07.238Z,100.00
2022-11-16T17:31:33.747Z,100.00
2022-11-16T17:34:00.253Z,100.00
2022-11-16T17:36:27.327Z,100.00
2022-11-16T17:38:53.824Z,100.00
2022-11-16T17:41:25.548Z,100.00
2022-11-16T17:43:53.655Z,100.00
2022-11-16T17:46:22.376Z,100.00
2022-11-16T17:48:49.935Z,100.00
2022-11-16T17:51:19.405Z,100.00
2022-11-16T17:53:46.381Z,100.00
2022-11-16T17:56:15.595Z,100.00
2022-11-16T17:58:42.478Z,100.00
2022-11-16T18:01:09.136Z,100.00
2022-11-16T18:03:36.973Z,100.00
2022-11-16T18:06:13.395Z,100.00
2022-11-16T18:08:40.877Z,100.00
2022-11-16T18:11:10.395Z,100.00
2022-11-16T18:13:37.392Z,100.00
2022-11-16T18:16:18.666Z,100.00
2022-11-16T18:18:46.738Z,100.00
2022-11-16T18:21:20.332Z,100.00
2022-11-16T18:23:47.921Z,100.00
2022-11-16T18:26:17.111Z,100.00
2022-11-16T18:28:51.570Z,100.00
2022-11-16T18:31:23.681Z,100.00
2022-11-16T18:33:51.386Z,100.00
2022-11-16T18:36:19.939Z,100.00
2022-11-16T18:38:47.093Z,100.00
2022-11-16T18:41:13.680Z,100.00
2022-11-16T18:43:42.084Z,100.00
2022-11-16T18:46:09.029Z,100.00
2022-11-16T18:48:35.529Z,100.00
2022-11-16T18:51:04.278Z,100.00
2022-11-16T18:53:32.314Z,100.00
2022-11-16T18:55:59.159Z,100.00
2022-11-16T19:01:16.484Z,100.00
2022-11-16T19:03:44.116Z,100.00
2022-11-16T19:06:11.781Z,100.00
2022-11-16T19:08:41.390Z,100.00
2022-11-16T19:11:13.591Z,100.00
2022-11-16T19:13:41.435Z,100.00
2022-11-16T19:16:10.051Z,100.00
2022-11-16T19:18:37.218Z,100.00
2022-11-16T19:21:08.557Z,100.00
2022-11-16T19:23:46.431Z,99.96
2022-11-16T19:26:14.846Z,100.00
2022-11-16T19:28:47.019Z,100.00
2022-11-16T19:31:23.232Z,100.00
2022-11-16T19:34:01.958Z,100.00
2022-11-16T19:36:29.590Z,99.64
2022-11-16T19:38:56.261Z,99.84
2022-11-16T19:41:23.998Z,99.65
2022-11-16T19:43:59.802Z,99.45
2022-11-16T19:46:28.334Z,99.66
2022-11-16T19:48:56.060Z,99.70
2022-11-16T19:51:27.891Z,99.56
2022-11-16T19:53:54.978Z,99.91
2022-11-16T19:56:23.252Z,99.87
2022-11-16T19:58:50.481Z,100.00
2022-11-16T20:01:18.629Z,98.88
2022-11-16T20:03:46.285Z,98.69
2022-11-16T20:06:23.872Z,99.17
2022-11-16T20:08:52.651Z,98.82
2022-11-16T20:11:21.437Z,98.69
2022-11-16T20:13:49.132Z,98.10
2022-11-16T20:16:16.643Z,98.31
2022-11-16T20:18:43.824Z,99.08
2022-11-16T20:21:18.541Z,98.72
2022-11-16T20:23:45.547Z,97.85
2022-11-16T20:26:13.456Z,98.19
2022-11-16T20:28:42.627Z,98.30
2022-11-16T20:31:14.827Z,97.78
2022-11-16T20:33:41.762Z,97.81
2022-11-16T20:36:11.484Z,97.83
2022-11-16T20:38:39.434Z,97.97
2022-11-16T20:41:10.182Z,97.86
2022-11-16T20:43:39.197Z,97.65
2022-11-16T20:46:10.530Z,97.57
2022-11-16T20:48:38.162Z,97.45
2022-11-16T20:51:06.032Z,97.19
2022-11-16T20:53:33.382Z,97.83
2022-11-16T20:56:03.549Z,97.27
2022-11-16T20:58:31.096Z,97.30
2022-11-16T21:01:10.503Z,97.26
2022-11-16T21:03:37.398Z,97.45
2022-11-16T21:06:08.418Z,98.27
2022-11-16T21:08:36.810Z,98.31
2022-11-16T21:11:10.158Z,97.66
2022-11-16T21:13:55.428Z,98.26
2022-11-16T21:16:22.000Z,98.27
2022-11-16T21:18:48.587Z,97.86
2022-11-16T21:21:15.154Z,98.02
2022-11-16T21:23:44.928Z,97.03
2022-11-16T21:26:13.364Z,97.36
2022-11-16T21:28:40.112Z,97.62
2022-11-16T21:31:10.178Z,97.91
2022-11-16T21:33:37.420Z,99.00
2022-11-16T21:36:10.013Z,98.92
2022-11-16T21:38:37.088Z,98.25
2022-11-16T21:41:06.385Z,98.38
2022-11-16T21:43:36.033Z,97.84
2022-11-16T21:46:06.791Z,98.37
2022-11-16T21:48:34.692Z,98.34
2022-11-16T21:51:03.844Z,98.37
2022-11-16T21:53:31.057Z,98.36
2022-11-16T21:55:57.963Z,98.57
2022-11-16T21:58:25.092Z,97.76
2022-11-16T22:00:56.297Z,98.31
2022-11-16T22:03:24.641Z,98.64
2022-11-16T22:06:32.007Z,97.71
2022-11-16T22:08:58.780Z,97.71
2022-11-16T22:11:25.579Z,98.13
2022-11-16T22:13:52.169Z,97.69
2022-11-16T22:16:20.907Z,97.27
2022-11-16T22:18:47.508Z,97.80
2022-11-16T22:21:13.977Z,97.65
2022-11-16T22:23:40.822Z,98.40
2022-11-16T22:26:10.031Z,97.32
2022-11-16T22:28:37.587Z,97.04
2022-11-16T22:31:12.298Z,97.16
2022-11-16T22:33:39.462Z,97.50
2022-11-16T22:36:10.388Z,96.79
2022-11-16T22:38:37.263Z,96.91
2022-11-16T22:41:04.201Z,96.77
2022-11-16T22:43:31.622Z,96.97
2022-11-16T22:46:02.928Z,96.76
2022-11-16T22:48:35.240Z,97.29
2022-11-16T22:51:06.731Z,96.30
2022-11-16T22:53:34.645Z,97.18
2022-11-16T22:56:06.119Z,97.42
2022-11-16T22:58:32.747Z,96.87
2022-11-16T23:00:59.137Z,97.12
2022-11-16T23:03:25.627Z,97.69
2022-11-16T23:05:52.117Z,96.27
2022-11-16T23:08:19.142Z,97.04
2022-11-16T23:11:05.968Z,96.54
2022-11-16T23:13:50.736Z,96.65
2022-11-16T23:16:17.564Z,96.44
2022-11-16T23:18:44.081Z,96.71
2022-11-16T23:21:29.030Z,97.07
2022-11-16T23:24:24.195Z,96.33
2022-11-16T23:27:09.286Z,97.00
2022-11-16T23:29:35.740Z,96.63
2022-11-16T23:32:02.204Z,96.89
2022-11-16T23:34:28.684Z,96.18
2022-11-16T23:36:55.140Z,96.53
2022-11-16T23:39:21.693Z,96.84
2022-11-16T23:42:07.009Z,96.68
2022-11-16T23:44:33.540Z,96.73
2022-11-16T23:46:59.972Z,96.14
2022-11-16T23:49:26.524Z,96.00
2022-11-16T23:51:53.028Z,96.53
2022-11-16T23:54:19.844Z,96.83
2022-11-16T23:56:46.355Z,96.81
2022-11-16T23:59:12.883Z,96.27
